sensor_id;sensor_type;location;lat;lon;timestamp;P1;durP1;ratioP1;P2;durP2;ratioP2
38264;SDS011;24062;47.480;8.768;2022-07-23T00:00:19;22.00;;;8.30;;
38264;SDS011;24062;47.480;8.768;2022-07-23T00:02:47;18.50;;;8.03;;
38264;SDS011;24062;47.480;8.768;2022-07-23T00:05:14;20.53;;;7.90;;
38264;SDS011;24062;47.480;8.768;2022-07-23T00:07:41;19.37;;;8.60;;
38264;SDS011;24062;47.480;8.768;2022-07-23T00:10:09;18.27;;;8.40;;
38264;SDS011;24062;47.480;8.768;2022-07-23T00:12:36;23.10;;;9.70;;
38264;SDS011;24062;47.480;8.768;2022-07-23T00:15:04;27.50;;;10.00;;
38264;SDS011;24062;47.480;8.768;2022-07-23T00:17:32;25.93;;;10.53;;
38264;SDS011;24062;47.480;8.768;2022-07-23T00:19:59;21.40;;;9.27;;
38264;SDS011;24062;47.480;8.768;2022-07-23T00:22:27;20.30;;;8.30;;
38264;SDS011;24062;47.480;8.768;2022-07-23T00:24:54;20.57;;;8.77;;
38264;SDS011;24062;47.480;8.768;2022-07-23T00:27:22;17.60;;;8.90;;
38264;SDS011;24062;47.480;8.768;2022-07-23T00:29:49;19.93;;;8.93;;
38264;SDS011;24062;47.480;8.768;2022-07-23T00:32:16;19.47;;;8.70;;
38264;SDS011;24062;47.480;8.768;2022-07-23T00:34:43;18.60;;;7.70;;
38264;SDS011;24062;47.480;8.768;2022-07-23T00:37:10;18.67;;;8.40;;
38264;SDS011;24062;47.480;8.768;2022-07-23T00:39:37;20.50;;;8.20;;
38264;SDS011;24062;47.480;8.768;2022-07-23T00:42:04;19.27;;;8.20;;
38264;SDS011;24062;47.480;8.768;2022-07-23T00:44:32;21.17;;;9.37;;
38264;SDS011;24062;47.480;8.768;2022-07-23T00:46:59;18.97;;;9.20;;
38264;SDS011;24062;47.480;8.768;2022-07-23T00:49:26;19.73;;;8.17;;
38264;SDS011;24062;47.480;8.768;2022-07-23T00:51:55;20.73;;;9.57;;
38264;SDS011;24062;47.480;8.768;2022-07-23T00:54:23;19.50;;;8.67;;
38264;SDS011;24062;47.480;8.768;2022-07-23T00:56:51;20.83;;;8.60;;
38264;SDS011;24062;47.480;8.768;2022-07-23T00:59:19;23.90;;;8.97;;
38264;SDS011;24062;47.480;8.768;2022-07-23T01:01:47;18.07;;;8.83;;
38264;SDS011;24062;47.480;8.768;2022-07-23T01:04:14;17.20;;;7.20;;
38264;SDS011;24062;47.480;8.768;2022-07-23T01:06:41;18.40;;;8.20;;
38264;SDS011;24062;47.480;8.768;2022-07-23T01:09:10;17.60;;;8.43;;
38264;SDS011;24062;47.480;8.768;2022-07-23T01:11:37;26.23;;;8.70;;
38264;SDS011;24062;47.480;8.768;2022-07-23T01:14:08;18.23;;;8.30;;
38264;SDS011;24062;47.480;8.768;2022-07-23T01:16:36;18.17;;;8.50;;
38264;SDS011;24062;47.480;8.768;2022-07-23T01:19:04;17.63;;;8.50;;
38264;SDS011;24062;47.480;8.768;2022-07-23T01:21:32;18.83;;;7.97;;
38264;SDS011;24062;47.480;8.768;2022-07-23T01:24:04;17.40;;;7.73;;
38264;SDS011;24062;47.480;8.768;2022-07-23T01:26:31;18.37;;;8.07;;
38264;SDS011;24062;47.480;8.768;2022-07-23T01:28:58;20.17;;;7.83;;
38264;SDS011;24062;47.480;8.768;2022-07-23T01:31:25;17.83;;;8.40;;
38264;SDS011;24062;47.480;8.768;2022-07-23T01:33:52;17.90;;;8.00;;
38264;SDS011;24062;47.480;8.768;2022-07-23T01:36:19;18.77;;;7.87;;
38264;SDS011;24062;47.480;8.768;2022-07-23T01:38:47;18.23;;;8.47;;
38264;SDS011;24062;47.480;8.768;2022-07-23T01:41:15;16.70;;;7.70;;
38264;SDS011;24062;47.480;8.768;2022-07-23T01:43:42;22.40;;;8.70;;
38264;SDS011;24062;47.480;8.768;2022-07-23T01:46:09;22.83;;;8.60;;
38264;SDS011;24062;47.480;8.768;2022-07-23T01:48:37;22.43;;;9.40;;
38264;SDS011;24062;47.480;8.768;2022-07-23T01:51:04;17.80;;;9.70;;
38264;SDS011;24062;47.480;8.768;2022-07-23T01:53:31;19.00;;;9.30;;
38264;SDS011;24062;47.480;8.768;2022-07-23T01:55:58;17.13;;;8.50;;
38264;SDS011;24062;47.480;8.768;2022-07-23T01:58:26;18.13;;;8.97;;
38264;SDS011;24062;47.480;8.768;2022-07-23T02:00:54;20.60;;;9.13;;
38264;SDS011;24062;47.480;8.768;2022-07-23T02:03:21;18.57;;;7.73;;
38264;SDS011;24062;47.480;8.768;2022-07-23T02:05:48;17.67;;;8.60;;
38264;SDS011;24062;47.480;8.768;2022-07-23T02:08:15;17.90;;;8.47;;
38264;SDS011;24062;47.480;8.768;2022-07-23T02:10:42;18.83;;;9.00;;
38264;SDS011;24062;47.480;8.768;2022-07-23T02:13:09;20.00;;;9.30;;
38264;SDS011;24062;47.480;8.768;2022-07-23T02:15:38;17.40;;;8.47;;
38264;SDS011;24062;47.480;8.768;2022-07-23T02:18:04;20.23;;;9.20;;
38264;SDS011;24062;47.480;8.768;2022-07-23T02:20:33;19.67;;;8.67;;
38264;SDS011;24062;47.480;8.768;2022-07-23T02:23:00;20.60;;;9.00;;
38264;SDS011;24062;47.480;8.768;2022-07-23T02:25:27;17.20;;;8.23;;
38264;SDS011;24062;47.480;8.768;2022-07-23T02:27:54;21.17;;;8.60;;
38264;SDS011;24062;47.480;8.768;2022-07-23T02:30:20;16.87;;;8.30;;
38264;SDS011;24062;47.480;8.768;2022-07-23T02:32:49;17.87;;;9.17;;
38264;SDS011;24062;47.480;8.768;2022-07-23T02:35:15;20.80;;;9.07;;
38264;SDS011;24062;47.480;8.768;2022-07-23T02:37:43;16.63;;;8.57;;
38264;SDS011;24062;47.480;8.768;2022-07-23T02:40:10;18.63;;;10.40;;
38264;SDS011;24062;47.480;8.768;2022-07-23T02:42:37;19.20;;;10.57;;
38264;SDS011;24062;47.480;8.768;2022-07-23T02:45:04;20.20;;;10.37;;
38264;SDS011;24062;47.480;8.768;2022-07-23T02:47:33;17.73;;;9.40;;
38264;SDS011;24062;47.480;8.768;2022-07-23T02:50:01;20.37;;;9.77;;
38264;SDS011;24062;47.480;8.768;2022-07-23T02:52:30;20.30;;;10.40;;
38264;SDS011;24062;47.480;8.768;2022-07-23T02:54:57;18.37;;;9.60;;
38264;SDS011;24062;47.480;8.768;2022-07-23T02:57:24;19.27;;;10.40;;
38264;SDS011;24062;47.480;8.768;2022-07-23T02:59:50;21.87;;;10.40;;
38264;SDS011;24062;47.480;8.768;2022-07-23T03:02:17;20.57;;;10.53;;
38264;SDS011;24062;47.480;8.768;2022-07-23T03:04:44;19.37;;;10.13;;
38264;SDS011;24062;47.480;8.768;2022-07-23T03:07:13;20.37;;;10.40;;
38264;SDS011;24062;47.480;8.768;2022-07-23T03:09:39;18.10;;;10.07;;
38264;SDS011;24062;47.480;8.768;2022-07-23T03:12:07;24.40;;;9.87;;
38264;SDS011;24062;47.480;8.768;2022-07-23T03:14:34;20.67;;;10.63;;
38264;SDS011;24062;47.480;8.768;2022-07-23T03:17:01;19.67;;;10.87;;
38264;SDS011;24062;47.480;8.768;2022-07-23T03:19:27;20.10;;;10.23;;
38264;SDS011;24062;47.480;8.768;2022-07-23T03:21:54;19.63;;;10.67;;
38264;SDS011;24062;47.480;8.768;2022-07-23T03:24:23;23.53;;;9.90;;
38264;SDS011;24062;47.480;8.768;2022-07-23T03:27:09;22.70;;;9.80;;
38264;SDS011;24062;47.480;8.768;2022-07-23T03:29:36;18.40;;;8.90;;
38264;SDS011;24062;47.480;8.768;2022-07-23T03:32:03;18.10;;;9.67;;
38264;SDS011;24062;47.480;8.768;2022-07-23T03:34:31;19.40;;;10.17;;
38264;SDS011;24062;47.480;8.768;2022-07-23T03:36:58;18.60;;;8.93;;
38264;SDS011;24062;47.480;8.768;2022-07-23T03:39:26;21.27;;;10.30;;
38264;SDS011;24062;47.480;8.768;2022-07-23T03:41:53;26.43;;;10.53;;
38264;SDS011;24062;47.480;8.768;2022-07-23T03:44:20;20.30;;;10.23;;
38264;SDS011;24062;47.480;8.768;2022-07-23T03:46:47;18.30;;;9.73;;
38264;SDS011;24062;47.480;8.768;2022-07-23T03:49:13;21.77;;;11.10;;
38264;SDS011;24062;47.480;8.768;2022-07-23T03:51:40;17.63;;;10.00;;
38264;SDS011;24062;47.480;8.768;2022-07-23T03:54:07;19.87;;;10.83;;
38264;SDS011;24062;47.480;8.768;2022-07-23T03:56:35;20.27;;;11.10;;
38264;SDS011;24062;47.480;8.768;2022-07-23T03:59:02;23.23;;;12.13;;
38264;SDS011;24062;47.480;8.768;2022-07-23T04:01:29;18.90;;;11.00;;
38264;SDS011;24062;47.480;8.768;2022-07-23T04:03:56;22.30;;;11.27;;
38264;SDS011;24062;47.480;8.768;2022-07-23T04:06:23;21.40;;;11.53;;
38264;SDS011;24062;47.480;8.768;2022-07-23T04:08:50;23.40;;;12.07;;
38264;SDS011;24062;47.480;8.768;2022-07-23T04:11:17;19.97;;;10.33;;
38264;SDS011;24062;47.480;8.768;2022-07-23T04:13:45;18.17;;;10.00;;
38264;SDS011;24062;47.480;8.768;2022-07-23T04:16:12;19.67;;;11.20;;
38264;SDS011;24062;47.480;8.768;2022-07-23T04:18:39;19.37;;;10.20;;
38264;SDS011;24062;47.480;8.768;2022-07-23T04:21:06;23.20;;;11.07;;
38264;SDS011;24062;47.480;8.768;2022-07-23T04:23:33;21.17;;;11.90;;
38264;SDS011;24062;47.480;8.768;2022-07-23T04:26:00;19.80;;;10.87;;
38264;SDS011;24062;47.480;8.768;2022-07-23T04:28:27;19.40;;;10.40;;
38264;SDS011;24062;47.480;8.768;2022-07-23T04:30:56;19.23;;;9.50;;
38264;SDS011;24062;47.480;8.768;2022-07-23T04:33:24;20.60;;;10.20;;
38264;SDS011;24062;47.480;8.768;2022-07-23T04:35:51;19.43;;;8.90;;
38264;SDS011;24062;47.480;8.768;2022-07-23T04:38:18;21.17;;;11.23;;
38264;SDS011;24062;47.480;8.768;2022-07-23T04:40:45;20.33;;;11.50;;
38264;SDS011;24062;47.480;8.768;2022-07-23T04:43:12;22.80;;;10.63;;
38264;SDS011;24062;47.480;8.768;2022-07-23T04:45:38;21.07;;;11.37;;
38264;SDS011;24062;47.480;8.768;2022-07-23T04:48:07;20.67;;;10.57;;
38264;SDS011;24062;47.480;8.768;2022-07-23T04:50:34;22.60;;;11.70;;
38264;SDS011;24062;47.480;8.768;2022-07-23T04:53:00;19.93;;;10.70;;
38264;SDS011;24062;47.480;8.768;2022-07-23T04:55:28;18.53;;;9.23;;
38264;SDS011;24062;47.480;8.768;2022-07-23T04:57:54;22.43;;;11.60;;
38264;SDS011;24062;47.480;8.768;2022-07-23T05:00:21;21.73;;;10.77;;
38264;SDS011;24062;47.480;8.768;2022-07-23T05:02:48;20.17;;;9.30;;
38264;SDS011;24062;47.480;8.768;2022-07-23T05:05:17;19.67;;;10.60;;
38264;SDS011;24062;47.480;8.768;2022-07-23T05:07:44;19.93;;;10.70;;
38264;SDS011;24062;47.480;8.768;2022-07-23T05:10:10;19.87;;;10.00;;
38264;SDS011;24062;47.480;8.768;2022-07-23T05:12:37;21.57;;;10.77;;
38264;SDS011;24062;47.480;8.768;2022-07-23T05:15:04;22.40;;;10.97;;
38264;SDS011;24062;47.480;8.768;2022-07-23T05:17:32;20.20;;;10.90;;
38264;SDS011;24062;47.480;8.768;2022-07-23T05:19:58;23.40;;;10.77;;
38264;SDS011;24062;47.480;8.768;2022-07-23T05:22:27;18.90;;;9.47;;
38264;SDS011;24062;47.480;8.768;2022-07-23T05:24:54;18.60;;;9.93;;
38264;SDS011;24062;47.480;8.768;2022-07-23T05:27:21;20.17;;;9.70;;
38264;SDS011;24062;47.480;8.768;2022-07-23T05:29:48;21.93;;;11.03;;
38264;SDS011;24062;47.480;8.768;2022-07-23T05:32:15;18.63;;;9.70;;
38264;SDS011;24062;47.480;8.768;2022-07-23T05:34:41;18.67;;;9.10;;
38264;SDS011;24062;47.480;8.768;2022-07-23T05:37:08;20.17;;;9.13;;
38264;SDS011;24062;47.480;8.768;2022-07-23T05:39:37;19.80;;;10.10;;
38264;SDS011;24062;47.480;8.768;2022-07-23T05:42:04;20.10;;;10.00;;
38264;SDS011;24062;47.480;8.768;2022-07-23T05:44:31;23.50;;;11.73;;
38264;SDS011;24062;47.480;8.768;2022-07-23T05:46:57;19.90;;;9.80;;
38264;SDS011;24062;47.480;8.768;2022-07-23T05:49:24;19.67;;;10.30;;
38264;SDS011;24062;47.480;8.768;2022-07-23T05:51:51;19.87;;;11.47;;
38264;SDS011;24062;47.480;8.768;2022-07-23T05:54:18;27.40;;;10.90;;
38264;SDS011;24062;47.480;8.768;2022-07-23T05:56:46;22.90;;;11.20;;
38264;SDS011;24062;47.480;8.768;2022-07-23T05:59:13;21.90;;;11.53;;
38264;SDS011;24062;47.480;8.768;2022-07-23T06:01:40;23.10;;;11.67;;
38264;SDS011;24062;47.480;8.768;2022-07-23T06:04:07;19.80;;;11.23;;
38264;SDS011;24062;47.480;8.768;2022-07-23T06:06:34;21.10;;;11.37;;
38264;SDS011;24062;47.480;8.768;2022-07-23T06:09:01;24.77;;;13.27;;
38264;SDS011;24062;47.480;8.768;2022-07-23T06:11:28;23.80;;;12.43;;
38264;SDS011;24062;47.480;8.768;2022-07-23T06:13:56;24.20;;;13.10;;
38264;SDS011;24062;47.480;8.768;2022-07-23T06:16:23;24.30;;;14.10;;
38264;SDS011;24062;47.480;8.768;2022-07-23T06:18:50;22.20;;;12.47;;
38264;SDS011;24062;47.480;8.768;2022-07-23T06:21:17;22.40;;;12.40;;
38264;SDS011;24062;47.480;8.768;2022-07-23T06:23:44;21.77;;;12.10;;
38264;SDS011;24062;47.480;8.768;2022-07-23T06:26:10;21.20;;;12.13;;
38264;SDS011;24062;47.480;8.768;2022-07-23T06:28:37;21.80;;;12.60;;
38264;SDS011;24062;47.480;8.768;2022-07-23T06:31:05;24.17;;;12.97;;
38264;SDS011;24062;47.480;8.768;2022-07-23T06:33:33;21.67;;;11.43;;
38264;SDS011;24062;47.480;8.768;2022-07-23T06:36:00;22.30;;;11.70;;
38264;SDS011;24062;47.480;8.768;2022-07-23T06:38:26;24.60;;;11.10;;
38264;SDS011;24062;47.480;8.768;2022-07-23T06:40:53;19.70;;;10.30;;
38264;SDS011;24062;47.480;8.768;2022-07-23T06:43:20;19.87;;;9.30;;
38264;SDS011;24062;47.480;8.768;2022-07-23T06:45:47;20.30;;;8.70;;
38264;SDS011;24062;47.480;8.768;2022-07-23T06:48:15;18.60;;;7.43;;
38264;SDS011;24062;47.480;8.768;2022-07-23T06:50:42;18.80;;;9.57;;
38264;SDS011;24062;47.480;8.768;2022-07-23T06:53:09;18.47;;;8.73;;
38264;SDS011;24062;47.480;8.768;2022-07-23T06:55:36;16.60;;;8.30;;
38264;SDS011;24062;47.480;8.768;2022-07-23T06:58:03;19.77;;;8.90;;
38264;SDS011;24062;47.480;8.768;2022-07-23T07:00:30;17.67;;;8.20;;
38264;SDS011;24062;47.480;8.768;2022-07-23T07:02:57;17.53;;;8.13;;
38264;SDS011;24062;47.480;8.768;2022-07-23T07:05:25;17.40;;;8.80;;
38264;SDS011;24062;47.480;8.768;2022-07-23T07:07:53;21.93;;;9.83;;
38264;SDS011;24062;47.480;8.768;2022-07-23T07:10:20;17.57;;;8.77;;
38264;SDS011;24062;47.480;8.768;2022-07-23T07:12:47;20.07;;;9.27;;
38264;SDS011;24062;47.480;8.768;2022-07-23T07:15:14;19.07;;;9.40;;
38264;SDS011;24062;47.480;8.768;2022-07-23T07:17:41;17.77;;;8.70;;
38264;SDS011;24062;47.480;8.768;2022-07-23T07:20:09;18.70;;;7.50;;
38264;SDS011;24062;47.480;8.768;2022-07-23T07:22:37;17.50;;;7.93;;
38264;SDS011;24062;47.480;8.768;2022-07-23T07:25:05;18.60;;;8.20;;
38264;SDS011;24062;47.480;8.768;2022-07-23T07:27:32;19.97;;;9.23;;
38264;SDS011;24062;47.480;8.768;2022-07-23T07:29:59;16.97;;;7.50;;
38264;SDS011;24062;47.480;8.768;2022-07-23T07:32:26;17.87;;;7.70;;
38264;SDS011;24062;47.480;8.768;2022-07-23T07:34:53;17.87;;;8.47;;
38264;SDS011;24062;47.480;8.768;2022-07-23T07:37:20;18.67;;;8.00;;
38264;SDS011;24062;47.480;8.768;2022-07-23T07:39:48;19.13;;;8.30;;
38264;SDS011;24062;47.480;8.768;2022-07-23T07:42:15;18.30;;;8.00;;
38264;SDS011;24062;47.480;8.768;2022-07-23T07:44:42;17.70;;;8.80;;
38264;SDS011;24062;47.480;8.768;2022-07-23T07:47:09;18.13;;;7.83;;
38264;SDS011;24062;47.480;8.768;2022-07-23T07:49:36;18.00;;;7.80;;
38264;SDS011;24062;47.480;8.768;2022-07-23T07:52:03;18.60;;;8.87;;
38264;SDS011;24062;47.480;8.768;2022-07-23T07:54:31;19.73;;;8.83;;
38264;SDS011;24062;47.480;8.768;2022-07-23T07:56:59;17.40;;;8.63;;
38264;SDS011;24062;47.480;8.768;2022-07-23T07:59:26;17.40;;;9.30;;
38264;SDS011;24062;47.480;8.768;2022-07-23T08:01:53;20.90;;;9.67;;
38264;SDS011;24062;47.480;8.768;2022-07-23T08:04:20;22.30;;;9.70;;
38264;SDS011;24062;47.480;8.768;2022-07-23T08:06:47;19.90;;;9.40;;
38264;SDS011;24062;47.480;8.768;2022-07-23T08:09:14;18.47;;;8.73;;
38264;SDS011;24062;47.480;8.768;2022-07-23T08:11:41;19.10;;;9.23;;
38264;SDS011;24062;47.480;8.768;2022-07-23T08:14:09;20.50;;;9.93;;
38264;SDS011;24062;47.480;8.768;2022-07-23T08:16:36;21.17;;;10.07;;
38264;SDS011;24062;47.480;8.768;2022-07-23T08:19:03;22.87;;;9.40;;
38264;SDS011;24062;47.480;8.768;2022-07-23T08:21:30;18.07;;;9.40;;
38264;SDS011;24062;47.480;8.768;2022-07-23T08:23:57;18.93;;;9.00;;
38264;SDS011;24062;47.480;8.768;2022-07-23T08:26:24;27.60;;;8.87;;
38264;SDS011;24062;47.480;8.768;2022-07-23T08:28:51;20.53;;;9.63;;
38264;SDS011;24062;47.480;8.768;2022-07-23T08:31:19;17.10;;;8.03;;
38264;SDS011;24062;47.480;8.768;2022-07-23T08:33:46;19.80;;;9.13;;
38264;SDS011;24062;47.480;8.768;2022-07-23T08:36:13;19.90;;;9.90;;
38264;SDS011;24062;47.480;8.768;2022-07-23T08:38:40;15.70;;;7.30;;
38264;SDS011;24062;47.480;8.768;2022-07-23T08:41:08;18.10;;;7.77;;
38264;SDS011;24062;47.480;8.768;2022-07-23T08:43:35;19.30;;;8.90;;
38264;SDS011;24062;47.480;8.768;2022-07-23T08:46:02;15.90;;;7.37;;
38264;SDS011;24062;47.480;8.768;2022-07-23T08:48:32;19.30;;;7.53;;
38264;SDS011;24062;47.480;8.768;2022-07-23T08:51:01;16.73;;;8.27;;
38264;SDS011;24062;47.480;8.768;2022-07-23T08:53:29;16.43;;;8.03;;
38264;SDS011;24062;47.480;8.768;2022-07-23T08:55:58;16.77;;;7.20;;
38264;SDS011;24062;47.480;8.768;2022-07-23T08:58:26;17.23;;;7.40;;
38264;SDS011;24062;47.480;8.768;2022-07-23T09:00:54;19.33;;;7.10;;
38264;SDS011;24062;47.480;8.768;2022-07-23T09:03:23;16.13;;;7.37;;
38264;SDS011;24062;47.480;8.768;2022-07-23T09:05:52;16.30;;;6.93;;
38264;SDS011;24062;47.480;8.768;2022-07-23T09:08:21;15.30;;;7.03;;
38264;SDS011;24062;47.480;8.768;2022-07-23T09:10:50;16.00;;;6.83;;
38264;SDS011;24062;47.480;8.768;2022-07-23T09:13:32;15.83;;;6.50;;
38264;SDS011;24062;47.480;8.768;2022-07-23T09:16:02;15.83;;;6.60;;
38264;SDS011;24062;47.480;8.768;2022-07-23T09:18:32;15.90;;;6.60;;
38264;SDS011;24062;47.480;8.768;2022-07-23T09:21:11;15.73;;;7.33;;
38264;SDS011;24062;47.480;8.768;2022-07-23T09:23:41;17.90;;;7.23;;
38264;SDS011;24062;47.480;8.768;2022-07-23T09:26:25;18.80;;;7.33;;
38264;SDS011;24062;47.480;8.768;2022-07-23T09:28:58;15.27;;;6.33;;
38264;SDS011;24062;47.480;8.768;2022-07-23T09:31:30;15.47;;;6.53;;
38264;SDS011;24062;47.480;8.768;2022-07-23T09:36:49;17.07;;;6.90;;
38264;SDS011;24062;47.480;8.768;2022-07-23T09:39:22;15.77;;;6.27;;
38264;SDS011;24062;47.480;8.768;2022-07-23T09:41:52;19.33;;;6.20;;
38264;SDS011;24062;47.480;8.768;2022-07-23T09:44:19;15.57;;;6.53;;
38264;SDS011;24062;47.480;8.768;2022-07-23T09:46:47;17.63;;;6.80;;
38264;SDS011;24062;47.480;8.768;2022-07-23T09:49:16;15.67;;;6.27;;
38264;SDS011;24062;47.480;8.768;2022-07-23T09:51:50;16.37;;;6.80;;
38264;SDS011;24062;47.480;8.768;2022-07-23T09:54:26;18.40;;;6.80;;
38264;SDS011;24062;47.480;8.768;2022-07-23T09:56:56;16.23;;;6.27;;
38264;SDS011;24062;47.480;8.768;2022-07-23T09:59:25;15.80;;;6.63;;
38264;SDS011;24062;47.480;8.768;2022-07-23T10:01:56;17.80;;;6.70;;
38264;SDS011;24062;47.480;8.768;2022-07-23T10:04:25;16.60;;;6.77;;
38264;SDS011;24062;47.480;8.768;2022-07-23T10:06:54;16.70;;;6.70;;
38264;SDS011;24062;47.480;8.768;2022-07-23T10:09:24;17.23;;;6.40;;
38264;SDS011;24062;47.480;8.768;2022-07-23T10:11:53;15.43;;;6.07;;
38264;SDS011;24062;47.480;8.768;2022-07-23T10:14:26;19.93;;;7.50;;
38264;SDS011;24062;47.480;8.768;2022-07-23T10:16:56;16.20;;;6.40;;
38264;SDS011;24062;47.480;8.768;2022-07-23T10:19:24;19.50;;;6.83;;
38264;SDS011;24062;47.480;8.768;2022-07-23T10:21:52;18.10;;;6.50;;
38264;SDS011;24062;47.480;8.768;2022-07-23T10:24:28;15.00;;;6.27;;
38264;SDS011;24062;47.480;8.768;2022-07-23T10:27:09;14.13;;;6.00;;
38264;SDS011;24062;47.480;8.768;2022-07-23T10:29:47;17.63;;;6.60;;
38264;SDS011;24062;47.480;8.768;2022-07-23T10:32:24;16.97;;;6.50;;
38264;SDS011;24062;47.480;8.768;2022-07-23T10:34:58;19.23;;;6.40;;
38264;SDS011;24062;47.480;8.768;2022-07-23T10:37:38;15.33;;;6.20;;
38264;SDS011;24062;47.480;8.768;2022-07-23T10:40:08;15.27;;;5.40;;
38264;SDS011;24062;47.480;8.768;2022-07-23T10:42:36;14.70;;;5.77;;
38264;SDS011;24062;47.480;8.768;2022-07-23T10:47:49;14.60;;;6.20;;
38264;SDS011;24062;47.480;8.768;2022-07-23T10:50:17;15.43;;;6.70;;
38264;SDS011;24062;47.480;8.768;2022-07-23T10:55:48;15.07;;;5.60;;
38264;SDS011;24062;47.480;8.768;2022-07-23T10:58:17;15.53;;;6.90;;
38264;SDS011;24062;47.480;8.768;2022-07-23T11:00:45;16.80;;;6.07;;
38264;SDS011;24062;47.480;8.768;2022-07-23T11:03:32;14.77;;;5.73;;
38264;SDS011;24062;47.480;8.768;2022-07-23T11:06:03;14.47;;;6.00;;
38264;SDS011;24062;47.480;8.768;2022-07-23T11:08:32;14.80;;;6.23;;
38264;SDS011;24062;47.480;8.768;2022-07-23T11:11:09;18.93;;;6.90;;
38264;SDS011;24062;47.480;8.768;2022-07-23T11:13:47;17.30;;;6.70;;
38264;SDS011;24062;47.480;8.768;2022-07-23T11:16:19;15.47;;;7.17;;
38264;SDS011;24062;47.480;8.768;2022-07-23T11:18:56;15.40;;;6.60;;
38264;SDS011;24062;47.480;8.768;2022-07-23T11:21:41;16.57;;;6.43;;
38264;SDS011;24062;47.480;8.768;2022-07-23T11:24:11;17.73;;;6.70;;
38264;SDS011;24062;47.480;8.768;2022-07-23T11:26:46;16.10;;;6.63;;
38264;SDS011;24062;47.480;8.768;2022-07-23T11:32:05;16.57;;;6.90;;
38264;SDS011;24062;47.480;8.768;2022-07-23T11:34:34;19.13;;;6.63;;
38264;SDS011;24062;47.480;8.768;2022-07-23T11:37:06;18.43;;;7.00;;
38264;SDS011;24062;47.480;8.768;2022-07-23T11:39:36;15.70;;;6.80;;
38264;SDS011;24062;47.480;8.768;2022-07-23T11:42:06;16.47;;;7.30;;
38264;SDS011;24062;47.480;8.768;2022-07-23T11:44:34;16.50;;;6.57;;
38264;SDS011;24062;47.480;8.768;2022-07-23T11:47:03;17.07;;;7.80;;
38264;SDS011;24062;47.480;8.768;2022-07-23T11:49:31;15.23;;;6.20;;
38264;SDS011;24062;47.480;8.768;2022-07-23T11:52:02;16.13;;;6.90;;
38264;SDS011;24062;47.480;8.768;2022-07-23T11:54:30;15.73;;;6.73;;
38264;SDS011;24062;47.480;8.768;2022-07-23T11:56:59;14.90;;;6.60;;
38264;SDS011;24062;47.480;8.768;2022-07-23T11:59:27;16.80;;;7.57;;
38264;SDS011;24062;47.480;8.768;2022-07-23T12:01:57;16.07;;;7.00;;
38264;SDS011;24062;47.480;8.768;2022-07-23T12:04:24;17.40;;;6.13;;
38264;SDS011;24062;47.480;8.768;2022-07-23T12:07:02;17.80;;;7.40;;
38264;SDS011;24062;47.480;8.768;2022-07-23T12:09:29;17.13;;;7.37;;
38264;SDS011;24062;47.480;8.768;2022-07-23T12:11:57;19.40;;;7.53;;
38264;SDS011;24062;47.480;8.768;2022-07-23T12:14:25;16.13;;;6.80;;
38264;SDS011;24062;47.480;8.768;2022-07-23T12:17:08;16.63;;;7.43;;
38264;SDS011;24062;47.480;8.768;2022-07-23T12:19:35;16.43;;;6.63;;
38264;SDS011;24062;47.480;8.768;2022-07-23T12:22:02;17.53;;;6.70;;
38264;SDS011;24062;47.480;8.768;2022-07-23T12:24:30;18.70;;;7.30;;
38264;SDS011;24062;47.480;8.768;2022-07-23T12:27:10;17.40;;;7.30;;
38264;SDS011;24062;47.480;8.768;2022-07-23T12:29:38;16.65;;;7.47;;
38264;SDS011;24062;47.480;8.768;2022-07-23T12:32:16;15.18;;;6.30;;
38264;SDS011;24062;47.480;8.768;2022-07-23T12:34:44;15.00;;;6.00;;
38264;SDS011;24062;47.480;8.768;2022-07-23T12:37:24;17.35;;;6.90;;
38264;SDS011;24062;47.480;8.768;2022-07-23T12:39:53;17.40;;;7.53;;
38264;SDS011;24062;47.480;8.768;2022-07-23T12:42:21;16.58;;;7.68;;
38264;SDS011;24062;47.480;8.768;2022-07-23T12:45:07;16.65;;;6.60;;
38264;SDS011;24062;47.480;8.768;2022-07-23T12:50:31;19.73;;;7.05;;
38264;SDS011;24062;47.480;8.768;2022-07-23T12:53:03;15.50;;;6.45;;
38264;SDS011;24062;47.480;8.768;2022-07-23T12:55:34;16.88;;;6.43;;
38264;SDS011;24062;47.480;8.768;2022-07-23T12:58:07;20.45;;;7.13;;
38264;SDS011;24062;47.480;8.768;2022-07-23T13:00:50;15.10;;;6.53;;
38264;SDS011;24062;47.480;8.768;2022-07-23T13:03:24;17.77;;;5.88;;
38264;SDS011;24062;47.480;8.768;2022-07-23T13:05:53;16.33;;;6.68;;
38264;SDS011;24062;47.480;8.768;2022-07-23T13:08:21;17.58;;;6.85;;
38264;SDS011;24062;47.480;8.768;2022-07-23T13:10:48;15.90;;;6.88;;
38264;SDS011;24062;47.480;8.768;2022-07-23T13:13:18;15.10;;;6.25;;
38264;SDS011;24062;47.480;8.768;2022-07-23T13:15:48;17.35;;;7.10;;
38264;SDS011;24062;47.480;8.768;2022-07-23T13:18:15;15.25;;;6.63;;
38264;SDS011;24062;47.480;8.768;2022-07-23T13:20:43;18.55;;;6.85;;
38264;SDS011;24062;47.480;8.768;2022-07-23T13:23:10;18.85;;;6.10;;
38264;SDS011;24062;47.480;8.768;2022-07-23T13:25:37;17.33;;;6.43;;
38264;SDS011;24062;47.480;8.768;2022-07-23T13:28:04;15.07;;;6.22;;
38264;SDS011;24062;47.480;8.768;2022-07-23T13:30:32;15.45;;;6.78;;
38264;SDS011;24062;47.480;8.768;2022-07-23T13:33:00;15.88;;;6.03;;
38264;SDS011;24062;47.480;8.768;2022-07-23T13:35:28;15.02;;;5.97;;
38264;SDS011;24062;47.480;8.768;2022-07-23T13:37:55;14.23;;;5.80;;
38264;SDS011;24062;47.480;8.768;2022-07-23T13:40:22;16.83;;;5.85;;
38264;SDS011;24062;47.480;8.768;2022-07-23T13:42:48;15.52;;;5.63;;
38264;SDS011;24062;47.480;8.768;2022-07-23T13:45:15;15.00;;;6.18;;
38264;SDS011;24062;47.480;8.768;2022-07-23T13:47:44;16.20;;;5.88;;
38264;SDS011;24062;47.480;8.768;2022-07-23T13:50:11;17.52;;;6.22;;
38264;SDS011;24062;47.480;8.768;2022-07-23T13:52:37;13.75;;;6.00;;
38264;SDS011;24062;47.480;8.768;2022-07-23T13:55:05;17.05;;;6.35;;
38264;SDS011;24062;47.480;8.768;2022-07-23T13:57:32;16.65;;;6.80;;
38264;SDS011;24062;47.480;8.768;2022-07-23T13:59:59;15.48;;;6.15;;
38264;SDS011;24062;47.480;8.768;2022-07-23T14:02:27;14.95;;;6.57;;
38264;SDS011;24062;47.480;8.768;2022-07-23T14:04:55;16.27;;;7.30;;
38264;SDS011;24062;47.480;8.768;2022-07-23T14:07:23;14.70;;;6.10;;
38264;SDS011;24062;47.480;8.768;2022-07-23T14:09:50;16.13;;;5.88;;
38264;SDS011;24062;47.480;8.768;2022-07-23T14:12:17;18.02;;;6.65;;
38264;SDS011;24062;47.480;8.768;2022-07-23T14:14:43;15.75;;;6.57;;
38264;SDS011;24062;47.480;8.768;2022-07-23T14:17:10;14.52;;;5.60;;
38264;SDS011;24062;47.480;8.768;2022-07-23T14:19:37;14.90;;;6.10;;
38264;SDS011;24062;47.480;8.768;2022-07-23T14:22:06;15.00;;;5.70;;
38264;SDS011;24062;47.480;8.768;2022-07-23T14:24:33;20.73;;;6.20;;
38264;SDS011;24062;47.480;8.768;2022-07-23T14:27:00;13.50;;;6.28;;
38264;SDS011;24062;47.480;8.768;2022-07-23T14:29:27;14.68;;;6.22;;
38264;SDS011;24062;47.480;8.768;2022-07-23T14:31:54;16.13;;;6.93;;
38264;SDS011;24062;47.480;8.768;2022-07-23T14:34:22;15.20;;;6.07;;
38264;SDS011;24062;47.480;8.768;2022-07-23T14:36:50;18.38;;;6.18;;
38264;SDS011;24062;47.480;8.768;2022-07-23T14:39:18;15.65;;;7.20;;
38264;SDS011;24062;47.480;8.768;2022-07-23T14:41:45;15.43;;;6.38;;
38264;SDS011;24062;47.480;8.768;2022-07-23T14:44:12;15.02;;;6.30;;
38264;SDS011;24062;47.480;8.768;2022-07-23T14:46:39;14.48;;;5.88;;
38264;SDS011;24062;47.480;8.768;2022-07-23T14:49:06;15.35;;;5.80;;
38264;SDS011;24062;47.480;8.768;2022-07-23T14:51:33;14.57;;;5.55;;